createdAt,value
2022-11-14T00:00:04.873Z,48.6
2022-11-14T00:01:04.296Z,48.6
2022-11-14T00:02:04.364Z,48.6
2022-11-14T00:03:04.369Z,48.6
2022-11-14T00:04:04.271Z,48.6
2022-11-14T00:05:04.327Z,48.6
2022-11-14T00:06:04.388Z,48.7
2022-11-14T00:07:04.389Z,48.7
2022-11-14T00:09:54.461Z,50.0
2022-11-14T00:10:04.449Z,49.5
2022-11-14T00:11:04.226Z,48.9
2022-11-14T00:12:04.232Z,48.8
2022-11-14T00:13:04.471Z,48.8
2022-11-14T00:14:04.289Z,48.8
2022-11-14T00:15:04.250Z,48.8
2022-11-14T00:16:04.264Z,48.8
2022-11-14T00:17:04.192Z,48.9
2022-11-14T00:18:04.229Z,48.9
2022-11-14T00:19:04.252Z,48.9
2022-11-14T00:20:04.284Z,48.9
2022-11-14T00:21:04.240Z,48.9
2022-11-14T00:22:04.173Z,49.0
2022-11-14T00:23:04.267Z,49.0
2022-11-14T00:24:04.233Z,49.1
2022-11-14T00:25:04.235Z,49.0
2022-11-14T00:26:04.262Z,49.0
2022-11-14T00:27:04.181Z,49.0
2022-11-14T00:28:04.180Z,49.1
2022-11-14T00:29:04.256Z,49.2
2022-11-14T00:30:12.505Z,49.3
2022-11-14T00:31:04.626Z,49.3
2022-11-14T00:32:04.633Z,49.3
2022-11-14T00:33:04.974Z,49.3
2022-11-14T00:34:04.714Z,49.3
2022-11-14T00:35:04.680Z,49.3
2022-11-14T00:36:04.722Z,49.4
2022-11-14T00:37:05.631Z,49.4
2022-11-14T00:38:04.705Z,49.4
2022-11-14T00:39:04.660Z,49.5
2022-11-14T00:40:04.597Z,49.5
2022-11-14T00:41:04.709Z,49.5
2022-11-14T00:42:04.660Z,49.5
2022-11-14T00:43:04.653Z,49.5
2022-11-14T00:44:04.601Z,49.6
2022-11-14T00:45:04.619Z,49.6
2022-11-14T00:46:04.657Z,49.6
2022-11-14T00:47:04.610Z,49.6
2022-11-14T00:48:04.600Z,49.6
2022-11-14T00:49:04.625Z,49.6
2022-11-14T00:50:04.598Z,49.7
2022-11-14T00:51:04.604Z,49.7
2022-11-14T00:52:04.604Z,49.8
2022-11-14T00:53:04.619Z,49.8
2022-11-14T00:54:05.644Z,49.8
2022-11-14T00:55:04.635Z,49.9
2022-11-14T00:56:04.610Z,49.9
2022-11-14T00:57:04.604Z,49.9
2022-11-14T00:58:05.233Z,49.9
2022-11-14T00:59:04.706Z,49.9
2022-11-14T01:00:04.683Z,49.9
2022-11-14T01:01:04.736Z,49.9
2022-11-14T01:02:04.603Z,49.9
2022-11-14T01:03:04.610Z,50.0
2022-11-14T01:04:04.621Z,50.1
2022-11-14T01:05:04.626Z,50.0
2022-11-14T01:06:04.606Z,50.1
2022-11-14T01:07:04.637Z,50.0
2022-11-14T01:08:04.624Z,50.0
2022-11-14T01:09:04.659Z,50.0
2022-11-14T01:10:04.650Z,50.1
2022-11-14T01:11:04.603Z,50.1
2022-11-14T01:12:04.631Z,50.1
2022-11-14T01:13:04.614Z,50.1
2022-11-14T01:14:04.624Z,50.2
2022-11-14T01:15:04.613Z,50.1
2022-11-14T01:16:04.650Z,50.1
2022-11-14T01:17:04.611Z,50.1
2022-11-14T01:18:04.713Z,50.1
2022-11-14T01:20:55.801Z,51.6
2022-11-14T01:21:04.544Z,51.3
2022-11-14T01:22:06.504Z,50.5
2022-11-14T01:23:04.638Z,50.4
2022-11-14T01:24:04.531Z,50.3
2022-11-14T01:25:04.529Z,50.3
2022-11-14T01:26:04.532Z,50.3
2022-11-14T01:27:04.528Z,50.3
2022-11-14T01:28:04.557Z,50.4
2022-11-14T01:29:04.519Z,50.4
2022-11-14T01:30:04.554Z,50.3
2022-11-14T01:31:04.529Z,50.4
2022-11-14T01:32:04.519Z,50.5
2022-11-14T01:33:04.527Z,50.5
2022-11-14T01:34:04.548Z,50.5
2022-11-14T01:35:04.661Z,50.5
2022-11-14T01:36:04.534Z,50.5
2022-11-14T01:37:04.543Z,50.5
2022-11-14T01:38:04.581Z,50.6
2022-11-14T01:39:04.524Z,50.6
2022-11-14T01:40:04.562Z,50.6
2022-11-14T01:41:05.004Z,50.6
2022-11-14T01:42:05.526Z,50.6
2022-11-14T01:43:04.529Z,50.7
2022-11-14T01:44:04.536Z,50.7
2022-11-14T01:45:04.524Z,50.7
2022-11-14T01:46:04.557Z,50.7
2022-11-14T01:47:04.547Z,50.7
2022-11-14T01:48:04.520Z,50.8
2022-11-14T01:49:04.540Z,50.7
2022-11-14T01:50:04.542Z,50.8
2022-11-14T01:51:04.531Z,50.8
2022-11-14T01:52:04.564Z,50.8
2022-11-14T01:53:04.656Z,50.8
2022-11-14T01:54:04.521Z,50.9
2022-11-14T01:55:04.651Z,50.9
2022-11-14T01:56:04.697Z,51.0
2022-11-14T01:57:04.631Z,51.0
2022-11-14T01:58:04.655Z,51.0
2022-11-14T01:59:04.608Z,51.0
2022-11-14T02:00:05.494Z,51.0
2022-11-14T02:01:04.589Z,51.0
2022-11-14T02:02:04.532Z,51.1
2022-11-14T02:03:04.625Z,51.1
2022-11-14T02:04:06.665Z,51.1
2022-11-14T02:05:04.648Z,51.2
2022-11-14T02:06:04.531Z,51.2
2022-11-14T02:07:04.633Z,51.2
2022-11-14T02:08:04.639Z,51.3
2022-11-14T02:09:04.651Z,51.2
2022-11-14T02:10:04.556Z,51.3
2022-11-14T02:11:04.534Z,51.3
2022-11-14T02:12:04.536Z,51.3
2022-11-14T02:13:04.544Z,51.3
2022-11-14T02:14:04.531Z,51.4
2022-11-14T02:15:04.535Z,51.4
2022-11-14T02:16:04.605Z,51.4
2022-11-14T02:17:27.445Z,51.4
2022-11-14T02:18:04.640Z,51.6
2022-11-14T02:19:05.752Z,51.5
2022-11-14T02:20:05.599Z,51.5
2022-11-14T02:21:04.535Z,51.5
2022-11-14T02:22:04.631Z,51.5
2022-11-14T02:23:04.563Z,51.4
2022-11-14T02:24:04.538Z,51.5
2022-11-14T02:25:04.943Z,51.5
2022-11-14T02:26:04.567Z,51.5
2022-11-14T02:27:04.536Z,51.5
2022-11-14T02:28:04.538Z,51.6
2022-11-14T02:29:04.553Z,51.6
2022-11-14T02:30:04.677Z,51.6
2022-11-14T02:31:04.552Z,51.6
2022-11-14T02:32:09.457Z,51.7
2022-11-14T02:33:12.013Z,51.8
2022-11-14T02:34:04.539Z,51.8
2022-11-14T02:35:04.555Z,51.7
2022-11-14T02:36:04.539Z,51.7
2022-11-14T02:37:04.540Z,51.8
2022-11-14T02:38:04.568Z,51.8
2022-11-14T02:39:04.546Z,51.8
2022-11-14T02:40:04.540Z,51.8
2022-11-14T02:41:04.646Z,51.8
2022-11-14T02:42:04.537Z,51.8
2022-11-14T02:43:04.667Z,51.8
2022-11-14T02:44:04.616Z,51.8
2022-11-14T02:45:04.656Z,51.8
2022-11-14T02:46:05.766Z,51.8
2022-11-14T02:47:04.666Z,51.9
2022-11-14T02:48:04.644Z,51.9
2022-11-14T02:49:04.659Z,51.9
2022-11-14T02:50:04.783Z,51.9
2022-11-14T02:51:04.653Z,51.9
2022-11-14T02:52:04.633Z,51.9
2022-11-14T02:53:04.680Z,51.9
2022-11-14T02:54:04.555Z,52.0
2022-11-14T02:55:04.604Z,51.9
2022-11-14T02:56:04.565Z,52.0
2022-11-14T02:57:04.663Z,52.0
2022-11-14T02:58:04.575Z,52.0
2022-11-14T02:59:04.550Z,52.0
2022-11-14T03:00:08.825Z,52.0
2022-11-14T03:01:20.134Z,52.1
2022-11-14T03:02:04.603Z,52.2
2022-11-14T03:03:04.552Z,52.1
2022-11-14T03:04:04.659Z,52.1
2022-11-14T03:05:04.551Z,52.1
2022-11-14T03:06:04.572Z,52.1
2022-11-14T03:07:04.597Z,52.1
2022-11-14T03:08:04.546Z,52.1
2022-11-14T03:09:04.547Z,52.1
2022-11-14T03:10:04.556Z,52.1
2022-11-14T03:11:04.554Z,52.1
2022-11-14T03:12:04.570Z,52.1
2022-11-14T03:13:04.557Z,52.1
2022-11-14T03:14:04.540Z,52.1
2022-11-14T03:15:04.550Z,52.1
2022-11-14T03:16:04.547Z,52.1
2022-11-14T03:17:04.555Z,52.1
2022-11-14T03:18:04.591Z,52.1
2022-11-14T03:19:04.573Z,52.1
2022-11-14T03:20:04.550Z,52.1
2022-11-14T03:21:04.555Z,52.1
2022-11-14T03:22:04.659Z,52.2
2022-11-14T03:23:04.549Z,52.2
2022-11-14T03:24:04.573Z,52.2
2022-11-14T03:25:04.654Z,52.2
2022-11-14T03:26:04.720Z,52.2
2022-11-14T03:27:04.591Z,52.2
2022-11-14T03:28:04.572Z,52.2
2022-11-14T03:29:04.561Z,52.2
2022-11-14T03:30:04.608Z,52.2
2022-11-14T03:31:04.571Z,52.2
2022-11-14T03:32:04.555Z,52.2
2022-11-14T03:33:04.560Z,52.2
2022-11-14T03:34:04.558Z,52.2
2022-11-14T03:35:04.574Z,52.2
2022-11-14T03:36:04.592Z,52.3
2022-11-14T03:37:04.564Z,52.3
2022-11-14T03:38:04.584Z,52.3
2022-11-14T03:39:04.710Z,52.2
2022-11-14T03:40:04.548Z,52.2
2022-11-14T03:41:04.560Z,52.3
2022-11-14T03:42:04.708Z,52.2
2022-11-14T03:43:04.664Z,52.2
2022-11-14T03:44:04.567Z,52.3
2022-11-14T03:45:04.574Z,52.3
2022-11-14T03:46:04.601Z,52.2
2022-11-14T03:47:04.564Z,52.2
2022-11-14T03:48:04.600Z,52.2
2022-11-14T03:49:04.570Z,52.3
2022-11-14T03:50:04.568Z,52.3
2022-11-14T03:51:04.624Z,52.3
2022-11-14T03:52:04.562Z,52.2
2022-11-14T03:53:04.564Z,52.2
2022-11-14T03:54:04.607Z,52.2
2022-11-14T03:55:04.562Z,52.2
2022-11-14T03:56:04.556Z,52.3
2022-11-14T03:57:04.580Z,52.3
2022-11-14T03:58:04.569Z,52.2
2022-11-14T03:59:04.574Z,52.2
2022-11-14T04:00:04.590Z,52.2
2022-11-14T04:01:04.625Z,52.2
2022-11-14T04:02:04.560Z,52.3
2022-11-14T04:03:04.571Z,52.2
2022-11-14T04:04:04.568Z,52.2
2022-11-14T04:05:04.572Z,52.2
2022-11-14T04:06:04.726Z,52.2
2022-11-14T04:07:04.593Z,52.2
2022-11-14T04:08:04.572Z,52.2
2022-11-14T04:09:04.574Z,52.3
2022-11-14T04:10:04.566Z,52.3
2022-11-14T04:11:04.566Z,52.3
2022-11-14T04:12:04.609Z,52.3
2022-11-14T04:13:04.569Z,52.3
2022-11-14T04:14:04.566Z,52.3
2022-11-14T04:15:04.575Z,52.2
2022-11-14T04:16:04.576Z,52.2
2022-11-14T04:17:04.572Z,52.3
2022-11-14T04:18:04.592Z,52.3
2022-11-14T04:19:04.576Z,52.3
2022-11-14T04:20:04.575Z,52.3
2022-11-14T04:21:04.589Z,52.3
2022-11-14T04:22:04.681Z,52.3
2022-11-14T04:23:04.574Z,52.3
2022-11-14T04:24:08.497Z,52.2
2022-11-14T04:25:04.668Z,52.3
2022-11-14T04:26:04.573Z,52.3
2022-11-14T04:27:04.571Z,52.3
2022-11-14T04:28:04.993Z,52.2
2022-11-14T04:29:04.686Z,52.3
2022-11-14T04:30:04.735Z,52.2
2022-11-14T04:31:04.671Z,52.2
2022-11-14T04:32:04.668Z,52.2
2022-11-14T04:33:04.688Z,52.2
2022-11-14T04:34:04.578Z,52.3
2022-11-14T04:35:04.577Z,52.2
2022-11-14T04:36:04.720Z,52.2
2022-11-14T04:37:04.582Z,52.2
2022-11-14T04:38:04.568Z,52.2
2022-11-14T04:39:04.678Z,52.3
2022-11-14T04:40:04.580Z,52.2
2022-11-14T04:41:04.587Z,52.2
2022-11-14T04:42:05.012Z,52.2
2022-11-14T04:43:04.685Z,52.2
2022-11-14T04:44:04.574Z,52.2
2022-11-14T04:45:04.640Z,52.3
2022-11-14T04:46:04.668Z,52.3
2022-11-14T04:47:04.589Z,52.3
2022-11-14T04:48:04.601Z,52.3
2022-11-14T04:49:04.580Z,52.3
2022-11-14T04:50:04.579Z,52.3
2022-11-14T04:51:04.581Z,52.3
2022-11-14T04:52:04.582Z,52.2
2022-11-14T04:53:04.592Z,52.3
2022-11-14T04:54:04.598Z,52.3
2022-11-14T04:55:04.580Z,52.1
2022-11-14T04:56:04.568Z,52.0
2022-11-14T04:57:04.581Z,51.8
2022-11-14T04:58:04.579Z,51.6
2022-11-14T04:59:04.576Z,51.5
2022-11-14T05:00:04.640Z,51.3
2022-11-14T05:01:04.622Z,51.2
2022-11-14T05:03:35.550Z,52.3
2022-11-14T05:04:04.281Z,51.4
2022-11-14T05:05:04.443Z,51.1
2022-11-14T05:06:04.347Z,51.0
2022-11-14T05:07:04.335Z,51.1
2022-11-14T05:08:04.188Z,51.0
2022-11-14T05:09:04.238Z,51.0
2022-11-14T05:10:04.224Z,51.0
2022-11-14T05:11:04.202Z,51.0
2022-11-14T05:12:04.259Z,50.9
2022-11-14T05:13:04.191Z,50.8
2022-11-14T05:14:04.193Z,50.7
2022-11-14T05:15:04.184Z,50.7
2022-11-14T05:16:04.198Z,50.5
2022-11-14T05:17:04.188Z,50.5
2022-11-14T05:18:04.219Z,50.4
2022-11-14T05:19:04.193Z,50.3
2022-11-14T05:20:04.202Z,50.2
2022-11-14T05:21:04.199Z,50.1
2022-11-14T05:22:04.209Z,50.1
2022-11-14T05:23:04.188Z,50.0
2022-11-14T05:24:04.223Z,49.9
2022-11-14T05:25:04.200Z,49.8
2022-11-14T05:26:05.126Z,49.7
2022-11-14T05:27:04.192Z,49.6
2022-11-14T05:28:04.234Z,49.6
2022-11-14T05:29:04.190Z,49.6
2022-11-14T05:30:04.231Z,49.5
2022-11-14T05:31:04.207Z,49.4
2022-11-14T05:32:04.205Z,49.4
2022-11-14T05:33:04.192Z,49.3
2022-11-14T05:34:04.196Z,49.3
2022-11-14T05:35:04.203Z,49.2
2022-11-14T05:36:04.243Z,49.1
2022-11-14T05:37:04.202Z,49.1
2022-11-14T05:38:04.203Z,49.0
2022-11-14T05:39:04.241Z,49.0
2022-11-14T05:40:04.243Z,48.9
2022-11-14T05:41:04.208Z,48.9
2022-11-14T05:42:04.231Z,48.9
2022-11-14T05:43:04.199Z,48.8
2022-11-14T05:44:04.212Z,48.7
2022-11-14T05:45:04.235Z,48.7
2022-11-14T05:46:04.203Z,48.7
2022-11-14T05:47:04.196Z,48.6
2022-11-14T05:48:04.260Z,48.6
2022-11-14T05:49:04.204Z,48.5
2022-11-14T05:50:04.199Z,48.4
2022-11-14T05:51:04.198Z,48.4
2022-11-14T05:52:04.210Z,48.3
2022-11-14T05:53:04.242Z,48.3
2022-11-14T05:54:04.233Z,48.3
2022-11-14T05:55:04.199Z,48.3
2022-11-14T05:56:04.215Z,48.2
2022-11-14T05:58:54.413Z,49.4
2022-11-14T05:59:04.361Z,48.9
2022-11-14T06:00:04.159Z,48.3
2022-11-14T06:01:04.116Z,48.2
2022-11-14T06:02:04.224Z,48.1
2022-11-14T06:03:04.130Z,48.0
2022-11-14T06:04:04.117Z,48.0
2022-11-14T06:05:04.121Z,48.1
2022-11-14T06:06:04.149Z,48.1
2022-11-14T06:07:04.187Z,48.1
2022-11-14T06:08:04.110Z,48.1
2022-11-14T06:09:04.140Z,48.0
2022-11-14T06:10:04.129Z,47.9
2022-11-14T06:11:04.122Z,47.9
2022-11-14T06:12:04.145Z,47.9
2022-11-14T06:13:04.111Z,47.8
2022-11-14T06:14:08.157Z,47.9
2022-11-14T06:15:04.199Z,47.8
2022-11-14T06:16:04.149Z,47.8
2022-11-14T06:17:04.272Z,47.7
2022-11-14T06:18:04.147Z,47.7
2022-11-14T06:19:04.123Z,47.6
2022-11-14T06:20:04.265Z,47.6
2022-11-14T06:21:04.152Z,47.6
2022-11-14T06:22:04.114Z,47.6
2022-11-14T06:23:04.242Z,47.6
2022-11-14T06:24:04.149Z,47.6
2022-11-14T06:25:04.121Z,47.6
2022-11-14T06:26:04.209Z,47.6
2022-11-14T06:27:04.118Z,47.6
2022-11-14T06:28:04.116Z,47.7
2022-11-14T06:29:04.125Z,47.8
2022-11-14T06:30:04.160Z,47.8
2022-11-14T06:31:04.131Z,47.8
2022-11-14T06:32:04.121Z,47.9
2022-11-14T06:33:04.111Z,47.9
2022-11-14T06:34:04.132Z,48.0
2022-11-14T06:35:04.122Z,48.0
2022-11-14T06:36:04.162Z,48.0
2022-11-14T06:37:04.125Z,48.0
2022-11-14T06:38:04.143Z,48.0
2022-11-14T06:39:04.125Z,48.0
2022-11-14T06:40:04.131Z,48.1
2022-11-14T06:41:04.125Z,48.0
2022-11-14T06:42:04.150Z,48.0
2022-11-14T06:43:04.119Z,48.1
2022-11-14T06:44:04.129Z,48.1
2022-11-14T06:45:04.130Z,48.1
2022-11-14T06:46:04.139Z,48.1
2022-11-14T06:47:04.134Z,48.2
2022-11-14T06:48:04.168Z,48.1
2022-11-14T06:49:04.118Z,48.1
2022-11-14T06:50:04.143Z,48.1
2022-11-14T06:51:04.126Z,48.1
2022-11-14T06:53:35.041Z,49.4
2022-11-14T06:54:03.744Z,48.4
2022-11-14T06:55:03.741Z,48.2
2022-11-14T06:56:03.750Z,48.1
2022-11-14T06:57:03.742Z,48.0
2022-11-14T06:58:03.795Z,47.9
2022-11-14T06:59:03.779Z,47.9
2022-11-14T07:00:03.746Z,47.9
2022-11-14T07:01:03.750Z,47.9
2022-11-14T07:02:03.767Z,47.8
2022-11-14T07:03:03.839Z,47.8
2022-11-14T07:04:03.750Z,47.8
2022-11-14T07:05:03.783Z,47.8
2022-11-14T07:06:03.758Z,47.8
2022-11-14T07:07:03.807Z,47.7
2022-11-14T07:08:03.764Z,47.7
2022-11-14T07:09:03.747Z,47.6
2022-11-14T07:10:10.759Z,47.8
2022-11-14T07:11:04.213Z,47.6
2022-11-14T07:12:04.217Z,47.6
2022-11-14T07:13:04.210Z,47.6
2022-11-14T07:14:04.223Z,47.6
2022-11-14T07:15:04.236Z,47.6
2022-11-14T07:16:04.237Z,47.6
2022-11-14T07:17:04.209Z,47.6
2022-11-14T07:18:04.213Z,47.5
2022-11-14T07:19:04.213Z,47.5
2022-11-14T07:20:04.209Z,47.5
2022-11-14T07:21:04.233Z,47.5
2022-11-14T07:22:04.212Z,47.5
2022-11-14T07:23:04.247Z,47.5
2022-11-14T07:24:04.232Z,47.6
2022-11-14T07:25:04.244Z,47.6
2022-11-14T07:26:04.240Z,47.6
2022-11-14T07:27:04.220Z,47.7
2022-11-14T07:28:04.249Z,47.7
2022-11-14T07:29:04.212Z,47.7
2022-11-14T07:30:04.222Z,47.7
2022-11-14T07:31:04.245Z,47.7
2022-11-14T07:32:04.216Z,47.8
2022-11-14T07:33:04.213Z,47.8
2022-11-14T07:34:04.218Z,47.8
2022-11-14T07:35:04.219Z,47.8
2022-11-14T07:36:04.229Z,47.8
2022-11-14T07:37:04.273Z,47.8
2022-11-14T07:38:04.215Z,47.8
2022-11-14T07:39:04.217Z,47.8
2022-11-14T07:40:04.223Z,47.8
2022-11-14T07:41:04.231Z,47.8
2022-11-14T07:42:04.231Z,47.8
2022-11-14T07:43:04.245Z,47.8
2022-11-14T07:44:04.218Z,47.9
2022-11-14T07:45:04.220Z,47.9
2022-11-14T07:46:04.220Z,47.9
2022-11-14T07:47:04.216Z,47.9
2022-11-14T07:48:04.224Z,47.9
2022-11-14T07:49:04.248Z,47.9
2022-11-14T07:50:04.240Z,47.9
2022-11-14T07:51:04.218Z,47.8
2022-11-14T07:52:04.238Z,47.8
2022-11-14T07:53:04.216Z,47.8
2022-11-14T07:54:04.225Z,47.7
2022-11-14T07:55:04.301Z,47.7
2022-11-14T07:56:04.226Z,47.7
2022-11-14T07:57:04.230Z,47.6
2022-11-14T07:58:04.243Z,47.6
2022-11-14T08:01:04.244Z,48.6
2022-11-14T08:02:04.139Z,47.8
2022-11-14T08:03:04.118Z,47.6
2022-11-14T08:04:04.130Z,47.6
2022-11-14T08:05:04.119Z,47.5
2022-11-14T08:06:04.125Z,47.5
2022-11-14T08:07:04.195Z,47.4
2022-11-14T08:08:04.141Z,47.4
2022-11-14T08:09:04.193Z,47.3
2022-11-14T08:10:04.127Z,47.3
2022-11-14T08:11:04.182Z,47.3
2022-11-14T08:12:04.149Z,47.3
2022-11-14T08:13:30.260Z,47.3
2022-11-14T08:14:04.123Z,47.5
2022-11-14T08:15:04.113Z,47.3
2022-11-14T08:16:07.785Z,47.3
2022-11-14T08:17:04.140Z,47.4
2022-11-14T08:18:04.124Z,47.4
2022-11-14T08:19:04.143Z,47.4
2022-11-14T08:20:04.137Z,47.4
2022-11-14T08:21:04.122Z,47.4
2022-11-14T08:22:04.132Z,47.4
2022-11-14T08:23:04.124Z,47.4
2022-11-14T08:24:04.162Z,47.4
2022-11-14T08:25:04.148Z,47.4
2022-11-14T08:26:04.130Z,47.5
2022-11-14T08:27:04.132Z,47.5
2022-11-14T08:28:04.138Z,47.5
2022-11-14T08:29:04.144Z,47.5
2022-11-14T08:30:04.147Z,47.6
2022-11-14T08:31:04.169Z,47.6
2022-11-14T08:32:04.131Z,47.6
2022-11-14T08:33:04.134Z,47.5
2022-11-14T08:34:04.141Z,47.6
2022-11-14T08:35:04.183Z,47.6
2022-11-14T08:36:04.137Z,47.6
2022-11-14T08:37:04.168Z,47.6
2022-11-14T08:38:04.148Z,47.6
2022-11-14T08:39:04.135Z,47.6
2022-11-14T08:40:04.145Z,47.6
2022-11-14T08:41:04.146Z,47.6
2022-11-14T08:42:04.140Z,47.6
2022-11-14T08:43:04.166Z,47.6
2022-11-14T08:44:04.142Z,47.6
2022-11-14T08:45:04.147Z,47.5
2022-11-14T08:47:56.319Z,48.7
2022-11-14T08:48:04.048Z,48.5
2022-11-14T08:49:05.687Z,47.6
2022-11-14T08:50:04.081Z,47.5
2022-11-14T08:51:04.971Z,47.4
2022-11-14T08:52:04.112Z,47.4
2022-11-14T08:53:04.060Z,47.3
2022-11-14T08:54:04.067Z,47.3
2022-11-14T08:55:04.045Z,47.3
2022-11-14T08:56:04.084Z,47.3
2022-11-14T08:57:04.041Z,47.3
2022-11-14T08:58:04.068Z,47.2
2022-11-14T08:59:04.295Z,47.2
2022-11-14T09:00:04.060Z,47.2
2022-11-14T09:01:04.041Z,47.2
2022-11-14T09:02:04.073Z,47.2
2022-11-14T09:03:04.093Z,47.2
2022-11-14T09:04:04.135Z,47.1
2022-11-14T09:05:04.036Z,47.1
2022-11-14T09:06:04.054Z,47.1
2022-11-14T09:07:04.119Z,47.2
2022-11-14T09:08:04.078Z,47.2
2022-11-14T09:09:04.055Z,47.2
2022-11-14T09:10:04.048Z,47.2
2022-11-14T09:11:05.704Z,47.3
2022-11-14T09:12:04.068Z,47.3
2022-11-14T09:13:04.066Z,47.3
2022-11-14T09:14:04.075Z,47.3
2022-11-14T09:15:04.057Z,47.3
2022-11-14T09:16:04.067Z,47.3
2022-11-14T09:17:06.082Z,47.3
2022-11-14T09:18:04.264Z,47.3
2022-11-14T09:19:04.080Z,47.3
2022-11-14T09:20:04.114Z,47.3
2022-11-14T09:21:04.046Z,47.3
2022-11-14T09:22:04.057Z,47.3
2022-11-14T09:23:04.063Z,47.3
2022-11-14T09:24:04.057Z,47.3
2022-11-14T09:25:04.056Z,47.4
2022-11-14T09:26:04.084Z,47.3
2022-11-14T09:27:04.112Z,47.4
2022-11-14T09:28:04.066Z,47.4
2022-11-14T09:29:05.094Z,47.4
2022-11-14T09:30:04.055Z,47.4
2022-11-14T09:31:04.065Z,47.4
2022-11-14T09:32:04.091Z,47.4
2022-11-14T09:33:10.075Z,47.4
2022-11-14T09:34:04.077Z,47.4
2022-11-14T09:35:04.060Z,47.4
2022-11-14T09:36:04.067Z,47.4
2022-11-14T09:37:04.059Z,47.5
2022-11-14T09:38:04.114Z,47.5
2022-11-14T09:39:04.062Z,47.5
2022-11-14T09:40:04.070Z,47.5
2022-11-14T09:41:04.060Z,47.5
2022-11-14T09:42:04.058Z,47.5
2022-11-14T09:43:04.063Z,47.5
2022-11-14T09:44:04.098Z,47.5
2022-11-14T09:45:04.070Z,47.5
2022-11-14T09:46:04.065Z,47.4
2022-11-14T09:47:04.054Z,47.4
2022-11-14T09:48:04.059Z,47.4
2022-11-14T09:49:04.058Z,47.4
2022-11-14T09:50:04.083Z,47.3
2022-11-14T09:51:04.052Z,47.3
2022-11-14T09:52:04.068Z,47.3
2022-11-14T09:53:04.063Z,47.2
2022-11-14T09:54:04.071Z,47.2
2022-11-14T09:55:04.058Z,47.2
2022-11-14T09:56:04.079Z,47.2
2022-11-14T09:57:04.054Z,47.2
2022-11-14T09:58:04.088Z,47.1
2022-11-14T09:59:04.063Z,47.1
2022-11-14T10:00:04.101Z,47.1
2022-11-14T10:01:09.119Z,47.0
2022-11-14T10:02:04.112Z,47.0
2022-11-14T10:03:04.183Z,47.0
2022-11-14T10:04:09.166Z,47.0
2022-11-14T10:05:04.069Z,47.0
2022-11-14T10:06:04.093Z,46.9
2022-11-14T10:07:04.145Z,47.0
2022-11-14T10:08:04.085Z,47.0
2022-11-14T10:09:04.076Z,47.0
2022-11-14T10:10:04.117Z,47.1
2022-11-14T10:11:04.064Z,47.0
2022-11-14T10:13:34.956Z,48.4
2022-11-14T10:14:03.675Z,47.4
2022-11-14T10:15:04.720Z,47.3
2022-11-14T10:16:03.742Z,47.2
2022-11-14T10:17:09.304Z,47.2
2022-11-14T10:18:03.695Z,47.2
2022-11-14T10:19:03.702Z,47.2
2022-11-14T10:20:03.710Z,47.1
2022-11-14T10:21:03.665Z,47.2
2022-11-14T10:22:03.683Z,47.2
2022-11-14T10:23:03.677Z,47.2
2022-11-14T10:24:03.682Z,47.2
2022-11-14T10:25:03.679Z,47.2
2022-11-14T10:26:03.718Z,47.2
2022-11-14T10:27:03.698Z,47.2
2022-11-14T10:28:05.348Z,47.2
2022-11-14T10:29:03.687Z,47.2
2022-11-14T10:30:03.685Z,47.2
2022-11-14T10:31:03.683Z,47.3
2022-11-14T10:32:03.707Z,47.3
2022-11-14T10:33:03.684Z,47.3
2022-11-14T10:34:03.689Z,47.3
2022-11-14T10:35:03.688Z,47.3
2022-11-14T10:36:03.680Z,47.3
2022-11-14T10:37:03.678Z,47.3
2022-11-14T10:38:03.715Z,47.3
2022-11-14T10:39:03.678Z,47.3
2022-11-14T10:40:03.693Z,47.3
2022-11-14T10:41:03.769Z,47.2
2022-11-14T10:42:07.692Z,47.2
2022-11-14T10:43:03.690Z,47.3
2022-11-14T10:44:03.723Z,47.2
2022-11-14T10:45:03.704Z,47.2
2022-11-14T10:46:03.695Z,47.2
2022-11-14T10:47:03.752Z,47.1
2022-11-14T10:48:03.704Z,47.1
2022-11-14T10:49:03.685Z,47.1
2022-11-14T10:50:03.731Z,47.1
2022-11-14T10:51:03.698Z,47.1
2022-11-14T10:52:03.727Z,47.0
2022-11-14T10:53:03.684Z,47.1
2022-11-14T10:54:03.696Z,47.1
2022-11-14T10:55:03.697Z,47.1
2022-11-14T10:56:05.077Z,47.1
2022-11-14T10:57:03.683Z,47.1
2022-11-14T10:58:03.684Z,47.1
2022-11-14T10:59:03.697Z,47.1
2022-11-14T11:00:03.694Z,47.0
2022-11-14T11:01:03.741Z,47.1
2022-11-14T11:02:03.719Z,47.1
2022-11-14T11:03:03.701Z,47.1
2022-11-14T11:04:03.736Z,47.1
2022-11-14T11:06:53.912Z,48.4
2022-11-14T11:07:04.676Z,47.9
2022-11-14T11:08:28.275Z,47.3
2022-11-14T11:09:04.829Z,47.7
2022-11-14T11:10:04.610Z,47.3
2022-11-14T11:11:04.610Z,47.3
2022-11-14T11:12:04.632Z,47.2
2022-11-14T11:13:04.697Z,47.2
2022-11-14T11:14:04.611Z,47.1
2022-11-14T11:15:04.613Z,47.1
2022-11-14T11:16:04.677Z,47.2
2022-11-14T11:17:04.615Z,47.2
2022-11-14T11:18:04.618Z,47.1
2022-11-14T11:19:04.632Z,47.1
2022-11-14T11:20:07.537Z,47.2
2022-11-14T11:21:04.638Z,47.2
2022-11-14T11:22:04.624Z,47.2
2022-11-14T11:23:04.612Z,47.1
2022-11-14T11:24:04.637Z,47.2
2022-11-14T11:25:04.632Z,47.2
2022-11-14T11:26:04.671Z,47.1
2022-11-14T11:27:04.613Z,47.1
2022-11-14T11:28:04.609Z,47.1
2022-11-14T11:29:04.644Z,47.1
2022-11-14T11:30:04.634Z,47.2
2022-11-14T11:31:04.627Z,47.2
2022-11-14T11:32:04.646Z,47.2
2022-11-14T11:33:04.621Z,47.2
2022-11-14T11:34:04.611Z,47.2
2022-11-14T11:35:04.615Z,47.2
2022-11-14T11:36:04.616Z,47.2
2022-11-14T11:37:04.621Z,47.2
2022-11-14T11:38:04.670Z,47.2
2022-11-14T11:39:04.620Z,47.2
2022-11-14T11:40:04.610Z,47.2
2022-11-14T11:41:04.618Z,47.2
2022-11-14T11:42:09.682Z,47.2
2022-11-14T11:44:04.780Z,47.5
2022-11-14T11:45:04.622Z,47.3
2022-11-14T11:46:04.615Z,47.2
2022-11-14T11:47:04.622Z,47.2
2022-11-14T11:48:04.683Z,47.2
2022-11-14T11:49:04.623Z,47.1
2022-11-14T11:50:04.641Z,47.1
2022-11-14T11:51:04.632Z,47.1
2022-11-14T11:52:04.637Z,47.1
2022-11-14T11:53:04.863Z,47.1
2022-11-14T11:54:04.617Z,47.0
2022-11-14T11:55:04.622Z,47.0
2022-11-14T11:56:04.646Z,47.0
2022-11-14T11:57:04.631Z,47.0
2022-11-14T11:58:04.619Z,47.0
2022-11-14T11:59:04.641Z,47.0
2022-11-14T12:00:04.699Z,47.0
2022-11-14T12:01:04.697Z,47.0
2022-11-14T12:02:04.758Z,47.0
2022-11-14T12:03:04.680Z,47.0
2022-11-14T12:04:04.677Z,47.0
2022-11-14T12:05:04.634Z,47.0
2022-11-14T12:06:04.669Z,47.0
2022-11-14T12:07:04.721Z,47.0
2022-11-14T12:10:03.168Z,48.3
2022-11-14T12:10:13.280Z,48.4
2022-11-14T12:11:05.247Z,47.3
2022-11-14T12:12:03.763Z,47.2
2022-11-14T12:13:03.740Z,47.1
2022-11-14T12:14:03.736Z,47.1
2022-11-14T12:15:03.754Z,47.1
2022-11-14T12:16:05.590Z,47.0
2022-11-14T12:17:03.834Z,47.1
2022-11-14T12:18:03.739Z,47.1
2022-11-14T12:19:03.742Z,47.0
2022-11-14T12:20:03.745Z,47.0
2022-11-14T12:21:03.745Z,47.0
2022-11-14T12:22:03.735Z,47.1
2022-11-14T12:23:03.775Z,47.1
2022-11-14T12:24:03.742Z,47.1
2022-11-14T12:25:03.749Z,47.1
2022-11-14T12:26:03.738Z,47.1
2022-11-14T12:27:03.756Z,47.1
2022-11-14T12:28:03.847Z,47.1
2022-11-14T12:29:03.782Z,47.1
2022-11-14T12:30:03.751Z,47.1
2022-11-14T12:31:03.789Z,47.1
2022-11-14T12:32:03.741Z,47.1
2022-11-14T12:33:03.740Z,47.1
2022-11-14T12:34:03.746Z,47.2
2022-11-14T12:35:03.827Z,47.2
2022-11-14T12:36:03.754Z,47.2
2022-11-14T12:37:03.824Z,47.2
2022-11-14T12:38:03.740Z,47.1
2022-11-14T12:39:03.758Z,47.1
2022-11-14T12:40:03.767Z,47.1
2022-11-14T12:41:03.804Z,47.1
2022-11-14T12:42:03.801Z,47.1
2022-11-14T12:43:03.755Z,47.0
2022-11-14T12:44:03.768Z,47.0
2022-11-14T12:45:03.757Z,47.0
2022-11-14T12:46:03.774Z,47.0
2022-11-14T12:47:03.780Z,47.0
2022-11-14T12:48:03.738Z,46.9
2022-11-14T12:49:03.748Z,46.9
2022-11-14T12:50:03.758Z,46.9
2022-11-14T12:51:03.856Z,46.9
2022-11-14T12:52:03.757Z,47.0
2022-11-14T12:53:03.762Z,46.9
2022-11-14T12:54:03.755Z,46.9
2022-11-14T12:55:03.751Z,46.9
2022-11-14T12:56:03.751Z,47.0
2022-11-14T12:57:03.803Z,46.9
2022-11-14T12:58:03.757Z,46.9
2022-11-14T12:59:03.763Z,46.9
2022-11-14T13:00:03.754Z,46.9
2022-11-14T13:01:03.842Z,46.9
2022-11-14T13:02:03.762Z,46.9
2022-11-14T13:03:03.810Z,47.0
2022-11-14T13:04:03.744Z,47.0
2022-11-14T13:05:03.758Z,46.9
2022-11-14T13:06:03.770Z,47.0
2022-11-14T13:07:04.837Z,47.0
2022-11-14T13:08:05.820Z,47.0
2022-11-14T13:09:03.786Z,47.0
2022-11-14T13:10:03.753Z,47.0
2022-11-14T13:11:03.776Z,47.0
2022-11-14T13:12:03.774Z,47.0
2022-11-14T13:13:03.768Z,47.0
2022-11-14T13:14:03.769Z,47.1
2022-11-14T13:15:03.842Z,47.0
2022-11-14T13:16:03.864Z,47.0
2022-11-14T13:17:03.758Z,47.0
2022-11-14T13:18:03.779Z,47.0
2022-11-14T13:19:03.759Z,47.0
2022-11-14T13:20:03.822Z,47.0
2022-11-14T13:21:03.895Z,47.1
2022-11-14T13:22:03.993Z,47.0
2022-11-14T13:23:03.789Z,47.0
2022-11-14T13:24:03.763Z,47.0
2022-11-14T13:25:03.767Z,47.0
2022-11-14T13:26:03.786Z,47.1
2022-11-14T13:27:03.800Z,47.1
2022-11-14T13:28:25.119Z,47.1
2022-11-14T13:29:03.772Z,47.3
2022-11-14T13:30:03.751Z,47.2